Time;durP1;ratioP1;P1;durP2;ratioP2;P2;SDS_P1;SDS_P2;PMS_P1;PMS_P2;Temp;Humidity;BMP_temperature;BMP_pressure;BME280_temperature;BME280_humidity;BME280_pressure;Samples;Min_cycle;Max_cycle;Signal;HPM_P1;HPM_P2
2021/09/26 00:00:44;;;;;;;35.30;18.58;;;18.80;86.80;;;;;;5115127;28;20028;-78
2021/09/26 00:03:10;;;;;;;36.47;20.30;;;18.80;86.60;;;;;;5105566;28;20027;-78
2021/09/26 00:05:36;;;;;;;36.40;20.52;;;18.80;86.70;;;;;;5095682;28;20028;-78
2021/09/26 00:08:01;;;;;;;35.45;19.83;;;18.90;86.50;;;;;;5102491;28;20715;-78
2021/09/26 00:10:27;;;;;;;37.10;21.25;;;18.90;86.30;;;;;;5116007;28;20031;-78
2021/09/26 00:12:53;;;;;;;26.38;15.70;;;19.00;86.20;;;;;;5114074;28;20042;-78
2021/09/26 00:15:20;;;;;;;29.98;17.40;;;18.90;86.40;;;;;;5115996;28;20028;-78
2021/09/26 00:17:47;;;;;;;36.00;20.70;;;18.90;86.60;;;;;;5096366;28;20103;-78
2021/09/26 00:20:14;;;;;;;39.92;20.63;;;18.80;86.70;;;;;;5077365;28;20410;-79
2021/09/26 00:22:40;;;;;;;36.03;21.42;;;18.90;86.60;;;;;;5095643;28;20099;-78
2021/09/26 00:25:07;;;;;;;36.65;20.92;;;18.90;86.60;;;;;;5125223;27;20089;-78
2021/09/26 00:27:33;;;;;;;36.63;20.42;;;19.00;86.20;;;;;;5106875;27;20039;-79
2021/09/26 00:29:59;;;;;;;34.03;20.70;;;19.00;86.20;;;;;;5095633;28;20505;-78
2021/09/26 00:32:24;;;;;;;34.65;19.88;;;19.00;86.60;;;;;;5095308;28;20069;-79
2021/09/26 00:34:50;;;;;;;38.38;21.02;;;19.00;86.40;;;;;;5095337;28;20060;-79
2021/09/26 00:37:16;;;;;;;35.70;20.30;;;19.00;86.20;;;;;;5095421;28;20085;-78
2021/09/26 00:39:44;;;;;;;39.78;21.73;;;19.00;86.20;;;;;;5109229;28;20039;-78
2021/09/26 00:42:10;;;;;;;36.80;22.38;;;19.00;86.40;;;;;;5115883;28;20590;-78
2021/09/26 00:44:35;;;;;;;32.88;19.83;;;19.00;86.70;;;;;;5115799;28;20147;-78
2021/09/26 00:47:01;;;;;;;37.60;20.00;;;19.10;86.50;;;;;;5092858;28;20035;-78
2021/09/26 00:49:27;;;;;;;36.70;22.00;;;19.00;86.70;;;;;;5077035;28;20398;-78
2021/09/26 00:51:53;;;;;;;35.05;19.73;;;19.00;87.00;;;;;;5095207;28;20639;-78
2021/09/26 00:54:19;;;;;;;30.90;18.40;;;19.00;87.00;;;;;;5095308;28;20676;-78
2021/09/26 00:57:05;;;;;;;36.85;20.73;;;18.90;87.10;;;;;;5094060;28;20472;-78
2021/09/26 00:59:31;;;;;;;32.83;19.45;;;19.00;86.90;;;;;;5076521;28;20039;-78
2021/09/26 01:02:14;;;;;;;36.55;19.85;;;19.10;86.50;;;;;;5095196;28;20020;-79
2021/09/26 01:04:40;;;;;;;37.30;20.45;;;19.10;86.50;;;;;;5094999;28;20050;-79
2021/09/26 01:07:20;;;;;;;38.83;21.05;;;19.00;87.00;;;;;;5108867;28;20024;-79
2021/09/26 01:10:09;;;;;;;39.97;19.73;;;19.10;86.90;;;;;;5115680;28;20066;-79
2021/09/26 01:12:34;;;;;;;38.58;19.38;;;19.10;87.00;;;;;;5097302;28;20073;-79
2021/09/26 01:15:42;;;;;;;38.67;20.80;;;19.10;87.40;;;;;;5097224;28;20438;-78
2021/09/26 01:18:21;;;;;;;37.85;19.98;;;19.00;87.70;;;;;;5094992;28;20024;-78
2021/09/26 01:21:06;;;;;;;41.42;21.17;;;19.00;87.60;;;;;;5095136;28;20024;-78
2021/09/26 01:24:28;;;;;;;33.00;19.20;;;19.10;87.60;;;;;;5097871;28;20051;-78
2021/09/26 01:27:24;;;;;;;40.40;19.48;;;19.10;87.40;;;;;;5055063;28;20029;-79
2021/09/26 01:30:50;;;;;;;38.30;20.60;;;19.20;87.40;;;;;;5062691;28;20044;-79
2021/09/26 01:33:20;;;;;;;36.53;19.15;;;19.20;87.40;;;;;;5032338;28;20645;-79
2021/09/26 01:36:11;;;;;;;39.15;21.95;;;19.20;87.40;;;;;;5032508;28;20029;-78
2021/09/26 01:38:52;;;;;;;34.05;18.20;;;19.20;87.20;;;;;;5084061;28;20047;-79
2021/09/26 01:41:33;;;;;;;34.83;20.33;;;19.20;87.20;;;;;;5098633;28;20033;-79
2021/09/26 01:44:01;;;;;;;35.88;19.50;;;19.30;87.10;;;;;;5098572;28;20509;-78
2021/09/26 01:46:32;;;;;;;44.78;21.15;;;19.20;87.00;;;;;;5098475;28;20017;-79
2021/09/26 01:49:09;;;;;;;39.22;20.48;;;19.20;87.30;;;;;;5101493;28;20027;-78
2021/09/26 01:51:37;;;;;;;38.53;20.63;;;19.10;87.20;;;;;;5118854;28;20027;-78
2021/09/26 01:54:05;;;;;;;40.15;21.80;;;19.10;87.60;;;;;;5118747;28;20032;-78
2021/09/26 01:56:31;;;;;;;37.95;19.25;;;19.10;87.80;;;;;;5118851;28;20059;-78
2021/09/26 01:59:20;;;;;;;35.92;20.38;;;19.10;87.80;;;;;;5114111;28;20382;-79
2021/09/26 02:01:46;;;;;;;43.40;20.05;;;19.00;87.90;;;;;;5098291;28;20553;-78
2021/09/26 02:04:14;;;;;;;36.53;18.98;;;19.10;87.80;;;;;;5098080;28;20129;-79
2021/09/26 02:06:41;;;;;;;38.67;19.90;;;19.10;87.70;;;;;;5098100;28;20020;-78
2021/09/26 02:09:09;;;;;;;37.13;19.85;;;19.10;87.80;;;;;;5080085;28;20024;-78
2021/09/26 02:11:36;;;;;;;36.03;19.60;;;19.10;87.70;;;;;;5097961;28;20489;-78
2021/09/26 02:14:04;;;;;;;42.22;20.65;;;19.10;87.80;;;;;;5079642;28;20490;-78
2021/09/26 02:16:33;;;;;;;38.03;20.50;;;19.20;87.60;;;;;;5097588;28;20386;-79
2021/09/26 02:19:00;;;;;;;36.15;18.35;;;19.20;87.60;;;;;;5097628;28;20043;-79
2021/09/26 02:21:26;;;;;;;40.45;19.73;;;19.20;87.60;;;;;;5097669;28;20016;-78
2021/09/26 02:23:53;;;;;;;30.83;17.27;;;19.20;87.80;;;;;;5106142;27;20512;-78
2021/09/26 02:26:19;;;;;;;33.33;17.90;;;19.30;87.50;;;;;;5105849;28;20016;-79
2021/09/26 02:28:45;;;;;;;31.90;18.65;;;19.30;87.60;;;;;;5097864;28;20043;-79
2021/09/26 02:31:12;;;;;;;35.80;18.17;;;19.30;87.50;;;;;;5097555;28;20028;-78
2021/09/26 02:33:44;;;;;;;33.92;18.80;;;19.30;87.40;;;;;;5097510;28;20054;-79
2021/09/26 02:36:10;;;;;;;33.13;17.70;;;19.30;87.40;;;;;;5097638;28;20024;-78
2021/09/26 02:38:37;;;;;;;34.97;18.42;;;19.30;87.10;;;;;;5095805;28;20091;-78
2021/09/26 02:41:44;;;;;;;29.90;16.58;;;19.30;87.30;;;;;;5097375;28;20063;-78
2021/09/26 02:44:20;;;;;;;35.00;16.50;;;19.40;87.20;;;;;;5097147;28;20024;-78
2021/09/26 02:46:52;;;;;;;35.10;17.17;;;19.40;87.10;;;;;;5097270;28;20102;-78
2021/09/26 02:49:19;;;;;;;30.27;17.17;;;19.30;87.10;;;;;;5096891;28;20067;-78
2021/09/26 02:51:45;;;;;;;27.75;16.42;;;19.30;87.40;;;;;;5097184;28;20035;-78
2021/09/26 02:54:11;;;;;;;33.67;16.45;;;19.30;87.50;;;;;;5097052;28;20036;-79
2021/09/26 02:56:38;;;;;;;37.67;17.42;;;19.30;87.40;;;;;;5097045;28;20372;-78
2021/09/26 02:59:04;;;;;;;31.05;16.85;;;19.30;87.50;;;;;;5096969;28;20028;-78
2021/09/26 03:01:59;;;;;;;30.23;15.40;;;19.30;87.50;;;;;;5096969;28;20023;-78
2021/09/26 03:04:26;;;;;;;25.33;15.48;;;19.30;87.40;;;;;;5096870;28;20035;-78
2021/09/26 03:06:51;;;;;;;32.80;15.40;;;19.40;87.20;;;;;;5096613;28;20390;-78
2021/09/26 03:09:17;;;;;;;30.33;16.52;;;19.30;87.30;;;;;;5096878;28;20039;-79
2021/09/26 03:11:43;;;;;;;23.98;15.68;;;19.30;87.40;;;;;;5096862;28;20381;-78
2021/09/26 03:14:09;;;;;;;28.73;15.88;;;19.30;87.20;;;;;;5094428;28;20096;-79
2021/09/26 03:16:34;;;;;;;33.35;16.20;;;19.30;87.30;;;;;;5096678;28;20473;-78
2021/09/26 03:19:03;;;;;;;28.35;15.05;;;19.30;87.40;;;;;;5096300;28;20032;-78
2021/09/26 03:21:28;;;;;;;27.95;16.58;;;19.30;87.40;;;;;;5096597;28;20035;-78
2021/09/26 03:23:58;;;;;;;22.92;14.13;;;19.40;87.30;;;;;;5103175;27;20053;-78
2021/09/26 03:26:24;;;;;;;32.72;15.20;;;19.40;87.40;;;;;;5124030;27;20096;-78
2021/09/26 03:28:50;;;;;;;25.33;14.85;;;19.40;87.30;;;;;;5116031;28;20032;-78
2021/09/26 03:31:17;;;;;;;24.55;14.30;;;19.40;87.20;;;;;;5078340;28;20036;-79
2021/09/26 03:33:43;;;;;;;24.77;15.13;;;19.40;87.10;;;;;;5096175;28;20029;-78
2021/09/26 03:36:12;;;;;;;23.48;13.43;;;19.40;87.10;;;;;;5096379;28;20406;-78
2021/09/26 03:38:38;;;;;;;27.27;14.20;;;19.40;87.00;;;;;;5096255;28;20426;-79
2021/09/26 03:41:04;;;;;;;22.63;14.05;;;19.30;87.10;;;;;;5096308;28;20065;-78
2021/09/26 03:43:30;;;;;;;24.23;13.70;;;19.30;87.20;;;;;;5096098;28;20031;-78
2021/09/26 03:45:55;;;;;;;21.33;12.30;;;19.30;87.10;;;;;;5096123;28;20034;-78
2021/09/26 03:48:22;;;;;;;24.75;13.52;;;19.30;87.30;;;;;;5096021;28;20394;-78
2021/09/26 03:50:50;;;;;;;23.00;12.77;;;19.30;87.40;;;;;;5095936;28;20024;-78
2021/09/26 03:53:17;;;;;;;24.42;12.13;;;19.20;87.60;;;;;;5096186;28;20012;-78
2021/09/26 03:55:43;;;;;;;23.38;13.57;;;19.30;87.50;;;;;;5095989;28;20435;-78
2021/09/26 03:58:09;;;;;;;24.58;13.20;;;19.30;87.40;;;;;;5077628;28;20032;-78
2021/09/26 04:00:36;;;;;;;24.00;13.05;;;19.30;87.50;;;;;;5094371;28;20043;-78
2021/09/26 04:03:01;;;;;;;20.63;11.57;;;19.30;87.50;;;;;;5095356;28;20386;-78
2021/09/26 04:05:27;;;;;;;30.33;12.50;;;19.30;87.50;;;;;;5095783;28;20016;-78
2021/09/26 04:07:53;;;;;;;21.67;13.18;;;19.30;87.30;;;;;;5095678;28;20027;-78
2021/09/26 04:10:21;;;;;;;23.25;13.10;;;19.30;87.40;;;;;;5104983;28;20177;-78
2021/09/26 04:12:46;;;;;;;18.45;12.15;;;19.30;87.40;;;;;;5116417;28;20031;-78
2021/09/26 04:15:13;;;;;;;20.27;11.20;;;19.30;87.60;;;;;;5107550;28;20081;-78
2021/09/26 04:17:40;;;;;;;15.27;8.57;;;19.30;87.80;;;;;;5077556;28;20027;-78
2021/09/26 04:20:07;;;;;;;14.25;7.93;;;19.20;87.90;;;;;;5095421;28;20036;-78
2021/09/26 04:22:34;;;;;;;10.40;7.00;;;19.10;88.10;;;;;;5095436;28;20032;-78
2021/09/26 04:25:00;;;;;;;12.48;8.48;;;19.10;88.00;;;;;;5104854;28;20027;-78
2021/09/26 04:27:26;;;;;;;15.10;9.40;;;19.00;88.40;;;;;;5136423;27;20019;-79
2021/09/26 04:29:53;;;;;;;20.98;10.15;;;18.90;88.70;;;;;;5106417;28;20047;-78
2021/09/26 04:32:19;;;;;;;16.77;9.80;;;18.80;88.90;;;;;;5095437;28;20024;-79
2021/09/26 04:34:45;;;;;;;18.83;10.13;;;18.90;88.90;;;;;;5077287;28;20084;-79
2021/09/26 04:37:11;;;;;;;16.55;8.93;;;19.00;89.10;;;;;;5095416;28;20532;-78
2021/09/26 04:39:37;;;;;;;14.98;8.60;;;19.00;88.80;;;;;;5113148;28;20099;-78
2021/09/26 04:42:03;;;;;;;16.30;9.43;;;19.00;88.60;;;;;;5108017;28;20027;-79
2021/09/26 04:44:31;;;;;;;19.10;10.20;;;19.00;88.50;;;;;;5077284;28;20093;-78
2021/09/26 04:46:57;;;;;;;18.95;9.82;;;19.00;88.50;;;;;;5093651;28;20115;-78
2021/09/26 04:49:28;;;;;;;17.58;10.40;;;19.00;88.50;;;;;;5097626;28;20035;-78
2021/09/26 04:51:58;;;;;;;19.48;10.25;;;19.10;88.10;;;;;;5115927;28;20051;-78
2021/09/26 04:54:23;;;;;;;21.15;10.63;;;19.10;88.10;;;;;;5102114;28;20024;-78
2021/09/26 04:56:49;;;;;;;18.20;9.95;;;19.10;88.00;;;;;;5095253;28;20043;-78
2021/09/26 04:59:15;;;;;;;19.33;9.48;;;19.10;88.10;;;;;;5095464;28;20024;-78
2021/09/26 05:01:41;;;;;;;19.02;9.25;;;19.10;88.00;;;;;;5088715;28;20319;-78
2021/09/26 05:04:06;;;;;;;21.63;10.40;;;19.00;88.10;;;;;;5115488;28;20027;-78
2021/09/26 05:06:32;;;;;;;16.77;10.20;;;19.00;88.30;;;;;;5115607;28;20115;-78
2021/09/26 05:08:58;;;;;;;16.70;10.23;;;19.00;88.40;;;;;;5098468;28;20490;-78
2021/09/26 05:11:23;;;;;;;23.67;11.13;;;19.00;88.40;;;;;;5095229;28;20132;-78
2021/09/26 05:13:49;;;;;;;23.02;11.80;;;19.10;88.20;;;;;;5096589;28;20862;-78
2021/09/26 05:16:15;;;;;;;17.02;10.50;;;19.00;88.20;;;;;;5098805;28;20028;-78
2021/09/26 05:18:41;;;;;;;22.17;9.93;;;19.10;88.20;;;;;;5098859;28;20031;-78
2021/09/26 05:21:07;;;;;;;22.35;10.77;;;19.10;88.00;;;;;;5102479;28;20023;-78
2021/09/26 05:23:34;;;;;;;18.88;10.18;;;19.10;88.10;;;;;;5120895;27;20055;-78
2021/09/26 05:26:00;;;;;;;23.08;11.48;;;19.20;87.90;;;;;;5139796;27;20019;-78
2021/09/26 05:28:26;;;;;;;22.52;11.40;;;19.20;87.80;;;;;;5139993;27;20058;-78
2021/09/26 05:30:51;;;;;;;21.08;11.57;;;19.20;87.70;;;;;;5131332;27;20023;-78
2021/09/26 05:33:17;;;;;;;25.63;12.05;;;19.20;87.60;;;;;;5098724;28;20024;-78
2021/09/26 05:35:46;;;;;;;21.20;11.82;;;19.20;87.50;;;;;;5098661;28;20501;-78
2021/09/26 05:38:11;;;;;;;26.48;12.50;;;19.20;87.40;;;;;;5098747;28;20024;-78
2021/09/26 05:40:37;;;;;;;23.38;12.13;;;19.20;87.40;;;;;;5098331;28;20036;-78
2021/09/26 05:43:03;;;;;;;24.80;11.63;;;19.20;87.40;;;;;;5080313;28;20021;-78
2021/09/26 05:45:28;;;;;;;27.00;12.38;;;19.30;87.10;;;;;;5098307;28;20505;-78
2021/09/26 05:47:54;;;;;;;25.10;13.77;;;19.30;87.00;;;;;;5098540;28;20486;-78
2021/09/26 05:50:20;;;;;;;29.02;14.43;;;19.30;86.90;;;;;;5098030;28;20032;-78
2021/09/26 05:52:47;;;;;;;25.50;14.50;;;19.30;86.90;;;;;;5097082;28;20093;-78
2021/09/26 05:55:13;;;;;;;26.88;14.45;;;19.40;86.80;;;;;;5098565;28;20047;-78
2021/09/26 05:57:39;;;;;;;26.73;14.95;;;19.40;86.90;;;;;;5098135;28;20402;-78
2021/09/26 06:00:06;;;;;;;28.80;15.27;;;19.40;86.80;;;;;;5098106;28;20119;-78
2021/09/26 06:02:33;;;;;;;34.95;16.80;;;19.40;86.80;;;;;;5098156;28;20046;-78
2021/09/26 06:04:59;;;;;;;36.22;16.92;;;19.40;86.90;;;;;;5101426;28;20030;-78
2021/09/26 06:07:25;;;;;;;36.17;17.83;;;19.40;86.80;;;;;;5099258;28;20085;-78
2021/09/26 06:09:53;;;;;;;36.15;17.00;;;19.30;86.80;;;;;;5113511;28;20028;-78
2021/09/26 06:12:20;;;;;;;33.95;17.67;;;19.40;86.80;;;;;;5115210;28;20039;-78
2021/09/26 06:14:45;;;;;;;35.47;18.45;;;19.40;86.80;;;;;;5095628;28;20027;-78
2021/09/26 06:17:11;;;;;;;30.35;17.08;;;19.40;86.70;;;;;;5117587;28;20137;-78
2021/09/26 06:19:38;;;;;;;34.78;17.35;;;19.40;86.60;;;;;;5117194;28;20523;-79
2021/09/26 06:22:04;;;;;;;34.00;16.80;;;19.50;86.50;;;;;;5100065;28;20043;-79
2021/09/26 06:24:30;;;;;;;33.20;17.38;;;19.40;86.40;;;;;;5094643;28;20044;-79
2021/09/26 06:26:55;;;;;;;36.08;16.77;;;19.40;86.50;;;;;;5097237;28;20035;-82
2021/09/26 06:29:21;;;;;;;34.38;15.95;;;19.40;86.60;;;;;;5094979;28;20027;-77
2021/09/26 06:31:48;;;;;;;32.88;17.20;;;19.30;86.50;;;;;;5094639;28;20077;-77
2021/09/26 06:34:14;;;;;;;34.35;16.38;;;19.40;86.30;;;;;;5094975;28;20100;-76
2021/09/26 06:36:42;;;;;;;29.55;16.45;;;19.50;86.10;;;;;;5096526;28;20028;-78
2021/09/26 06:39:08;;;;;;;32.55;16.92;;;19.50;85.90;;;;;;5096499;28;20024;-79
2021/09/26 06:41:34;;;;;;;27.60;16.52;;;19.50;85.90;;;;;;5096648;28;20073;-78
2021/09/26 06:44:01;;;;;;;34.90;16.50;;;19.50;85.70;;;;;;5082550;28;20040;-77
2021/09/26 06:46:27;;;;;;;31.10;16.05;;;19.50;85.60;;;;;;5077158;28;20414;-77
2021/09/26 06:48:53;;;;;;;29.77;16.27;;;19.50;85.50;;;;;;5076631;28;20032;-77
2021/09/26 06:51:19;;;;;;;30.30;16.80;;;19.50;85.30;;;;;;5076832;28;20406;-78
2021/09/26 06:53:45;;;;;;;26.00;14.63;;;19.50;85.20;;;;;;5077034;28;20107;-77
2021/09/26 06:56:11;;;;;;;28.13;14.90;;;19.50;85.40;;;;;;5076879;28;20027;-76
2021/09/26 06:58:36;;;;;;;31.02;16.45;;;19.50;85.30;;;;;;5076497;28;20032;-78
2021/09/26 07:01:03;;;;;;;26.80;14.80;;;19.50;85.20;;;;;;5076344;28;20017;-77
2021/09/26 07:03:28;;;;;;;26.38;15.70;;;19.50;85.10;;;;;;5074651;28;20103;-78
2021/09/26 07:05:54;;;;;;;27.42;15.57;;;19.50;85.10;;;;;;5080291;28;20067;-89
2021/09/26 07:08:20;;;;;;;26.35;15.80;;;19.50;84.90;;;;;;5075431;28;20052;-78
2021/09/26 07:10:45;;;;;;;26.48;15.02;;;19.50;84.90;;;;;;5076062;28;20633;-80
2021/09/26 07:13:11;;;;;;;28.73;15.02;;;19.50;85.10;;;;;;5074647;28;20028;-82
2021/09/26 07:15:37;;;;;;;29.85;16.98;;;19.50;85.00;;;;;;5092833;28;20035;-80
2021/09/26 07:18:03;;;;;;;29.67;15.05;;;19.50;85.10;;;;;;5096437;28;20028;-81
2021/09/26 07:20:29;;;;;;;25.73;16.02;;;19.40;85.10;;;;;;5079357;28;20036;-81
2021/09/26 07:22:58;;;;;;;29.00;15.30;;;19.50;85.20;;;;;;5079744;28;20040;-83
2021/09/26 07:25:25;;;;;;;31.30;16.65;;;19.50;85.00;;;;;;5115837;27;20023;-84
2021/09/26 07:27:51;;;;;;;28.98;15.98;;;19.50;85.00;;;;;;5108008;27;20551;-85
2021/09/26 07:30:16;;;;;;;33.88;17.30;;;19.60;84.80;;;;;;5096257;28;20024;-83
2021/09/26 07:32:42;;;;;;;28.27;15.57;;;19.50;85.00;;;;;;5095922;28;20112;-82
2021/09/26 07:35:10;;;;;;;30.40;15.57;;;19.50;85.10;;;;;;5097807;28;20047;-77
2021/09/26 07:37:36;;;;;;;32.67;17.45;;;19.60;84.90;;;;;;5100321;28;20019;-78
2021/09/26 07:40:02;;;;;;;28.20;15.60;;;19.70;84.70;;;;;;5112315;27;20035;-80
2021/09/26 07:42:28;;;;;;;33.40;16.42;;;19.70;84.60;;;;;;5100043;27;20489;-81
2021/09/26 07:44:58;;;;;;;24.60;14.95;;;19.80;84.30;;;;;;5087173;27;20053;-81
2021/09/26 07:47:24;;;;;;;26.73;15.70;;;19.80;84.30;;;;;;5117162;27;20507;-77
2021/09/26 07:49:50;;;;;;;27.50;16.08;;;19.90;84.10;;;;;;5096880;28;20027;-82
2021/09/26 07:52:15;;;;;;;24.92;15.02;;;20.00;84.00;;;;;;5114091;28;20092;-80
2021/09/26 07:54:41;;;;;;;23.60;14.32;;;20.10;83.50;;;;;;5115870;28;20110;-79
2021/09/26 07:57:07;;;;;;;24.63;14.05;;;20.30;83.10;;;;;;5100926;27;20531;-79
2021/09/26 07:59:32;;;;;;;22.83;13.45;;;20.40;82.70;;;;;;5114445;27;20023;-80
2021/09/26 08:01:58;;;;;;;19.20;12.20;;;20.50;82.80;;;;;;5103248;28;20132;-80
2021/09/26 08:04:24;;;;;;;23.88;12.98;;;20.50;82.00;;;;;;5115281;28;20059;-79
2021/09/26 08:06:49;;;;;;;20.50;13.13;;;20.60;82.40;;;;;;5085542;28;20107;-79
2021/09/26 08:09:15;;;;;;;17.42;11.35;;;20.80;82.00;;;;;;5099685;28;20035;-79
2021/09/26 08:11:41;;;;;;;17.80;11.05;;;20.80;81.60;;;;;;5073530;28;20024;-79
2021/09/26 08:14:06;;;;;;;17.02;10.82;;;20.80;81.20;;;;;;5108675;28;20440;-78
2021/09/26 08:16:32;;;;;;;18.55;10.93;;;20.70;80.90;;;;;;5107505;28;20456;-78
2021/09/26 08:18:58;;;;;;;15.77;9.75;;;20.70;80.70;;;;;;5097805;28;20042;-80
2021/09/26 08:21:23;;;;;;;14.65;9.93;;;20.80;80.70;;;;;;5077341;28;20107;-79
2021/09/26 08:23:49;;;;;;;15.88;10.50;;;20.60;81.50;;;;;;5091663;28;20051;-80
2021/09/26 08:26:15;;;;;;;18.17;10.55;;;20.70;81.30;;;;;;5136308;27;20413;-79
2021/09/26 08:28:40;;;;;;;16.85;10.23;;;20.80;81.10;;;;;;5103359;28;20028;-79
2021/09/26 08:36:27;;;;;;;14.25;8.63;;;20.90;80.90;;;;;;5072440;28;20488;-78
2021/09/26 08:38:53;;;;;;;13.68;9.52;;;20.70;81.40;;;;;;5072321;28;20033;-76
2021/09/26 08:41:19;;;;;;;14.27;9.52;;;20.70;81.70;;;;;;5064011;28;20064;-77
2021/09/26 08:43:49;;;;;;;14.05;8.95;;;20.80;81.50;;;;;;5052448;28;20508;-77
2021/09/26 08:46:17;;;;;;;16.17;9.50;;;20.70;81.20;;;;;;5051244;28;20025;-77
2021/09/26 08:48:43;;;;;;;9.77;7.65;;;20.70;80.70;;;;;;5061689;28;20090;-75
2021/09/26 08:51:10;;;;;;;13.57;9.65;;;20.50;80.90;;;;;;5065220;28;20024;-77
2021/09/26 08:53:36;;;;;;;12.10;8.07;;;20.50;81.10;;;;;;5071665;28;20402;-77
2021/09/26 08:56:03;;;;;;;13.88;8.48;;;20.40;81.10;;;;;;5068765;28;20029;-89
2021/09/26 08:58:31;;;;;;;11.50;7.30;;;20.40;81.00;;;;;;5065680;28;20108;-82
2021/09/26 09:00:56;;;;;;;8.98;6.50;;;20.30;80.80;;;;;;5067041;28;20021;-87
2021/09/26 09:03:22;;;;;;;10.07;7.00;;;20.30;80.40;;;;;;5067652;28;20028;-81
2021/09/26 09:05:54;;;;;;;10.55;6.45;;;20.30;81.00;;;;;;5071850;28;20047;-80
2021/09/26 09:08:23;;;;;;;9.18;6.43;;;20.30;80.60;;;;;;5063215;28;20086;-82
2021/09/26 09:10:50;;;;;;;12.05;6.35;;;20.10;80.70;;;;;;5070164;28;20087;-83
2021/09/26 09:13:29;;;;;;;8.18;5.78;;;20.20;80.80;;;;;;5071532;28;20029;-81
2021/09/26 09:15:58;;;;;;;9.48;6.40;;;20.30;80.60;;;;;;5071758;28;20075;-85
2021/09/26 09:18:25;;;;;;;9.85;6.15;;;20.30;79.80;;;;;;5066095;28;20394;-84
2021/09/26 09:20:51;;;;;;;8.10;6.35;;;20.30;79.70;;;;;;5068939;28;20032;-83
2021/09/26 09:23:22;;;;;;;7.70;5.85;;;20.30;79.90;;;;;;5060727;28;20032;-82
2021/09/26 09:25:55;;;;;;;8.50;6.00;;;20.50;79.80;;;;;;5060107;28;20040;-82
2021/09/26 09:28:26;;;;;;;9.02;5.70;;;20.70;79.30;;;;;;5063708;28;20028;-83
2021/09/26 09:31:01;;;;;;;9.43;7.47;;;20.80;78.70;;;;;;5063884;28;20029;-83
2021/09/26 09:33:41;;;;;;;8.18;6.30;;;20.80;77.10;;;;;;5060922;28;20056;-81
2021/09/26 09:36:23;;;;;;;10.13;6.67;;;20.90;76.60;;;;;;5051441;28;20064;-81
2021/09/26 09:38:51;;;;;;;9.00;6.22;;;21.00;76.00;;;;;;5061744;28;20029;-80
2021/09/26 09:41:40;;;;;;;7.20;6.22;;;21.20;76.60;;;;;;5068413;28;20062;-81
2021/09/26 09:44:08;;;;;;;10.60;7.47;;;21.30;75.00;;;;;;5057756;28;20120;-80
2021/09/26 09:46:40;;;;;;;12.40;7.80;;;21.30;74.20;;;;;;5060057;28;20113;-79
2021/09/26 09:49:11;;;;;;;10.35;7.45;;;21.30;74.20;;;;;;5043250;28;20108;-80
2021/09/26 09:51:51;;;;;;;11.48;7.55;;;21.30;74.00;;;;;;5050346;28;20025;-80
2021/09/26 09:54:33;;;;;;;11.47;7.60;;;21.30;73.60;;;;;;5052031;28;20064;-80
2021/09/26 09:57:12;;;;;;;10.00;7.07;;;21.30;73.80;;;;;;5043195;28;20025;-79
2021/09/26 09:59:38;;;;;;;12.23;8.15;;;21.30;73.70;;;;;;5046913;28;20078;-80
2021/09/26 10:02:04;;;;;;;10.45;6.78;;;21.30;74.00;;;;;;5032118;28;20033;-80
2021/09/26 10:04:42;;;;;;;12.43;7.75;;;21.50;74.00;;;;;;5048713;28;20529;-83
2021/09/26 10:07:26;;;;;;;10.73;7.65;;;21.50;73.70;;;;;;5044682;28;20025;-86
2021/09/26 10:09:53;;;;;;;11.43;7.97;;;21.60;72.70;;;;;;5058077;28;20086;-82
2021/09/26 10:12:37;;;;;;;13.18;8.13;;;21.80;72.40;;;;;;5054660;28;20056;-80
2021/09/26 10:15:04;;;;;;;10.05;7.18;;;22.00;72.20;;;;;;5049308;28;20047;-78
2021/09/26 10:17:30;;;;;;;12.38;7.68;;;22.10;71.90;;;;;;5048991;28;20026;-78
2021/09/26 10:19:57;;;;;;;11.63;7.45;;;22.20;71.40;;;;;;5037591;28;20029;-77
2021/09/26 10:22:24;;;;;;;12.07;7.40;;;22.20;71.20;;;;;;5044338;28;20063;-78
2021/09/26 10:24:53;;;;;;;10.70;7.43;;;22.20;71.30;;;;;;5046583;28;20029;-78
2021/09/26 10:27:22;;;;;;;12.95;8.23;;;22.00;71.10;;;;;;5040282;28;20123;-77
2021/09/26 10:30:07;;;;;;;10.88;7.90;;;21.90;71.80;;;;;;5044670;28;20013;-80
2021/09/26 10:32:33;;;;;;;11.88;7.70;;;21.80;71.40;;;;;;5039652;28;20020;-77
2021/09/26 10:35:00;;;;;;;13.35;8.25;;;21.70;72.00;;;;;;5049303;28;20042;-82
2021/09/26 10:37:27;;;;;;;13.07;7.82;;;21.60;72.40;;;;;;5047193;28;20029;-79
2021/09/26 10:39:53;;;;;;;10.73;7.57;;;21.70;72.50;;;;;;5040135;28;20017;-82
2021/09/26 10:42:21;;;;;;;13.63;7.70;;;21.90;71.40;;;;;;5042216;28;20078;-79
2021/09/26 10:45:00;;;;;;;11.55;7.55;;;22.10;70.40;;;;;;5042889;28;20032;-83
2021/09/26 10:47:33;;;;;;;9.80;6.68;;;22.30;71.20;;;;;;5045578;28;20040;-81
2021/09/26 10:50:11;;;;;;;12.48;7.57;;;22.70;69.80;;;;;;5056243;28;20048;-76
2021/09/26 10:52:43;;;;;;;10.38;6.63;;;23.30;69.20;;;;;;5048799;28;20030;-77
2021/09/26 10:55:14;;;;;;;11.80;7.45;;;23.20;68.10;;;;;;5034914;28;20025;-76
2021/09/26 10:57:41;;;;;;;9.25;6.70;;;23.10;67.50;;;;;;5044870;28;20052;-77
2021/09/26 11:00:08;;;;;;;10.35;6.72;;;23.20;68.10;;;;;;5045180;28;20025;-76
2021/09/26 11:02:39;;;;;;;11.27;6.40;;;23.30;67.80;;;;;;5042506;28;20622;-76
2021/09/26 11:05:06;;;;;;;8.98;6.20;;;23.20;66.50;;;;;;5055756;28;20057;-75
2021/09/26 11:07:44;;;;;;;10.00;6.25;;;23.20;68.00;;;;;;5053766;28;20579;-75
2021/09/26 11:10:10;;;;;;;8.85;5.95;;;23.20;67.80;;;;;;5041948;28;20084;-78
2021/09/26 11:12:41;;;;;;;7.40;4.72;;;23.20;67.80;;;;;;5044005;28;20510;-78
2021/09/26 11:15:15;;;;;;;6.55;4.65;;;22.90;67.90;;;;;;5047734;28;20067;-75
2021/09/26 11:17:48;;;;;;;4.35;3.50;;;22.90;66.80;;;;;;5043155;28;20021;-75
2021/09/26 11:20:25;;;;;;;5.25;4.05;;;22.80;66.50;;;;;;5046612;28;20540;-85
2021/09/26 11:23:10;;;;;;;7.32;4.10;;;22.80;66.50;;;;;;5029487;28;20666;-81
2021/09/26 11:26:00;;;;;;;6.25;4.13;;;23.10;66.80;;;;;;5047263;28;20033;-81
2021/09/26 11:28:29;;;;;;;7.45;4.30;;;22.90;66.00;;;;;;5039376;28;20040;-77
2021/09/26 11:30:55;;;;;;;5.78;4.10;;;22.80;67.50;;;;;;5033143;28;20025;-76
2021/09/26 11:33:22;;;;;;;5.70;4.22;;;22.80;66.50;;;;;;5049042;28;20021;-77
2021/09/26 11:35:48;;;;;;;6.70;4.18;;;22.90;67.40;;;;;;5045020;28;20700;-77
2021/09/26 11:38:23;;;;;;;5.32;4.10;;;23.00;67.90;;;;;;5047607;28;20036;-76
2021/09/26 11:41:00;;;;;;;6.82;4.18;;;23.00;67.30;;;;;;5040132;28;20036;-77
2021/09/26 11:43:37;;;;;;;7.22;4.30;;;23.20;67.10;;;;;;5046037;28;20026;-77
2021/09/26 11:46:23;;;;;;;7.53;4.53;;;23.30;66.60;;;;;;5049478;28;20021;-77
2021/09/26 11:48:50;;;;;;;9.40;4.70;;;23.30;64.90;;;;;;5043189;28;20422;-77
2021/09/26 11:51:17;;;;;;;7.32;4.45;;;23.20;65.10;;;;;;5046269;28;20017;-77
2021/09/26 11:53:44;;;;;;;6.20;4.35;;;23.20;66.30;;;;;;5042552;28;20017;-77
2021/09/26 11:56:13;;;;;;;6.15;4.32;;;23.30;65.50;;;;;;5044422;28;20025;-77
2021/09/26 11:58:38;;;;;;;8.82;4.47;;;23.30;66.10;;;;;;5039655;28;20071;-77
2021/09/26 12:01:04;;;;;;;9.18;4.50;;;23.40;65.10;;;;;;5038357;28;20028;-77
2021/09/26 12:03:33;;;;;;;7.25;4.47;;;23.30;65.70;;;;;;5044848;28;20026;-78
2021/09/26 12:05:59;;;;;;;7.00;5.25;;;23.10;66.00;;;;;;5053138;28;20021;-77
2021/09/26 12:08:35;;;;;;;6.72;4.75;;;23.10;66.10;;;;;;5040181;28;20033;-80
2021/09/26 12:11:07;;;;;;;7.63;4.82;;;23.20;67.10;;;;;;5033711;28;20067;-78
2021/09/26 12:13:42;;;;;;;7.10;4.53;;;23.10;66.30;;;;;;5033623;28;20030;-78
2021/09/26 12:16:09;;;;;;;5.45;4.80;;;23.00;66.60;;;;;;5032774;28;20033;-78
2021/09/26 12:18:35;;;;;;;6.07;4.10;;;23.20;66.80;;;;;;5043009;28;20072;-79
2021/09/26 12:21:05;;;;;;;6.25;5.10;;;23.30;65.80;;;;;;5044909;28;20521;-79
2021/09/26 12:24:01;;;;;;;8.15;4.40;;;23.60;65.90;;;;;;5045450;28;20020;-80
2021/09/26 12:26:33;;;;;;;6.80;4.65;;;23.80;64.10;;;;;;5042048;28;20494;-80
2021/09/26 12:29:03;;;;;;;6.65;4.50;;;23.90;64.20;;;;;;5042108;28;20035;-80
2021/09/26 12:31:31;;;;;;;5.47;3.78;;;23.80;63.80;;;;;;5042126;28;20120;-79
2021/09/26 12:33:58;;;;;;;6.07;3.70;;;23.70;64.90;;;;;;5042090;28;20041;-80
2021/09/26 12:36:27;;;;;;;6.15;3.97;;;23.70;64.30;;;;;;5041900;28;20456;-79
2021/09/26 12:38:56;;;;;;;4.27;3.70;;;23.60;64.40;;;;;;5037186;28;20040;-80
2021/09/26 12:41:27;;;;;;;6.40;3.00;;;23.50;64.20;;;;;;5044090;28;20021;-80
2021/09/26 12:44:00;;;;;;;5.82;3.88;;;23.70;65.40;;;;;;5039403;28;20073;-80
2021/09/26 12:46:39;;;;;;;6.18;3.72;;;23.60;65.30;;;;;;5048189;28;20028;-81
2021/09/26 12:49:17;;;;;;;5.80;3.15;;;23.50;66.10;;;;;;5045133;28;20030;-79